createdAt,value
2023-04-19T00:01:50.868Z,3.83
2023-04-19T00:04:19.276Z,4.00
2023-04-19T00:06:47.493Z,4.10
2023-04-19T00:09:15.476Z,4.27
2023-04-19T00:11:44.822Z,3.77
2023-04-19T00:14:13.011Z,4.20
2023-04-19T00:16:42.046Z,3.70
2023-04-19T00:19:10.589Z,4.07
2023-04-19T00:21:38.557Z,4.43
2023-04-19T00:24:07.389Z,3.90
2023-04-19T00:26:35.373Z,4.07
2023-04-19T00:29:05.004Z,4.13
2023-04-19T00:31:33.158Z,3.90
2023-04-19T00:34:01.191Z,4.23
2023-04-19T00:36:30.862Z,3.90
2023-04-19T00:38:59.060Z,3.60
2023-04-19T00:41:27.169Z,4.00
2023-04-19T00:43:55.318Z,4.00
2023-04-19T00:46:25.195Z,4.03
2023-04-19T00:48:53.212Z,4.00
2023-04-19T00:51:21.521Z,3.87
2023-04-19T00:53:49.972Z,3.90
2023-04-19T00:56:18.877Z,4.13
2023-04-19T00:58:47.836Z,3.70
2023-04-19T01:01:16.026Z,3.73
2023-04-19T01:03:45.879Z,4.07
2023-04-19T01:06:14.496Z,4.30
2023-04-19T01:08:42.549Z,3.40
2023-04-19T01:11:10.761Z,3.43
2023-04-19T01:13:38.978Z,3.67
2023-04-19T01:16:08.403Z,3.50
2023-04-19T01:18:37.814Z,3.50
2023-04-19T01:21:08.780Z,3.57
2023-04-19T01:23:39.251Z,3.67
2023-04-19T01:26:07.623Z,3.60
2023-04-19T01:28:35.891Z,3.50
2023-04-19T01:31:04.047Z,4.00
2023-04-19T01:33:32.043Z,4.07
2023-04-19T01:35:59.990Z,3.63
2023-04-19T01:38:28.072Z,3.70
2023-04-19T01:40:57.378Z,3.53
2023-04-19T01:43:25.708Z,3.50
2023-04-19T01:45:53.764Z,3.80
2023-04-19T01:48:21.755Z,3.43
2023-04-19T01:50:49.730Z,3.20
2023-04-19T01:53:18.150Z,3.60
2023-04-19T01:55:46.360Z,3.40
2023-04-19T01:58:15.949Z,3.40
2023-04-19T02:00:43.984Z,3.30
2023-04-19T02:03:12.360Z,3.10
2023-04-19T02:05:40.925Z,3.10
2023-04-19T02:08:08.980Z,3.50
2023-04-19T02:10:36.993Z,3.50
2023-04-19T02:13:05.080Z,4.07
2023-04-19T02:15:34.445Z,3.43
2023-04-19T02:18:02.547Z,3.40
2023-04-19T02:20:31.282Z,3.13
2023-04-19T02:22:59.406Z,3.33
2023-04-19T02:25:27.651Z,3.50
2023-04-19T02:27:55.624Z,3.70
2023-04-19T02:30:23.997Z,3.30
2023-04-19T02:32:55.004Z,3.73
2023-04-19T02:35:23.200Z,3.10
2023-04-19T02:37:51.444Z,3.50
2023-04-19T02:40:19.819Z,3.73
2023-04-19T02:42:47.780Z,3.40
2023-04-19T02:45:15.983Z,3.53
2023-04-19T02:47:43.999Z,3.37
2023-04-19T02:50:13.993Z,3.60
2023-04-19T02:52:42.095Z,3.10
2023-04-19T02:55:10.973Z,3.10
2023-04-19T02:57:38.926Z,3.60
2023-04-19T03:00:10.302Z,3.20
2023-04-19T03:02:39.697Z,2.90
2023-04-19T03:05:08.904Z,3.20
2023-04-19T03:07:38.285Z,3.40
2023-04-19T03:10:07.692Z,3.60
2023-04-19T03:12:35.871Z,3.60
2023-04-19T03:15:04.095Z,3.53
2023-04-19T03:17:32.364Z,4.10
2023-04-19T03:20:00.500Z,3.60
2023-04-19T03:22:28.660Z,3.90
2023-04-19T03:24:58.205Z,3.20
2023-04-19T03:27:26.300Z,3.77
2023-04-19T03:29:54.316Z,3.70
2023-04-19T03:32:22.363Z,4.07
2023-04-19T03:34:50.569Z,3.50
2023-04-19T03:37:18.566Z,3.93
2023-04-19T03:39:46.563Z,3.13
2023-04-19T03:42:16.048Z,3.70
2023-04-19T03:44:44.123Z,4.47
2023-04-19T03:47:12.220Z,3.20
2023-04-19T03:49:40.199Z,3.80
2023-04-19T03:52:08.247Z,4.13
2023-04-19T03:54:36.309Z,4.30
2023-04-19T03:57:04.501Z,4.53
2023-04-19T03:59:33.956Z,4.00
2023-04-19T04:02:02.363Z,4.27
2023-04-19T04:04:30.706Z,3.70
2023-04-19T04:06:59.036Z,3.97
2023-04-19T04:09:27.083Z,3.63
2023-04-19T04:11:55.201Z,4.80
2023-04-19T04:14:23.183Z,4.23
2023-04-19T04:16:52.722Z,4.40
2023-04-19T04:19:22.058Z,5.07
2023-04-19T04:21:50.433Z,4.40
2023-04-19T04:24:20.383Z,5.10
2023-04-19T04:26:49.881Z,4.97
2023-04-19T04:29:18.165Z,4.47
2023-04-19T04:31:46.427Z,4.70
2023-04-19T04:34:16.481Z,4.67
2023-04-19T04:36:44.582Z,4.17
2023-04-19T04:39:13.155Z,4.60
2023-04-19T04:41:42.445Z,3.87
2023-04-19T04:44:23.426Z,4.10
2023-04-19T04:46:51.652Z,4.00
2023-04-19T04:49:21.144Z,4.33
2023-04-19T04:51:49.167Z,4.10
2023-04-19T04:54:17.409Z,4.37
2023-04-19T04:56:45.864Z,4.37
2023-04-19T04:59:13.914Z,4.30
2023-04-19T05:01:42.273Z,4.63
2023-04-19T05:04:10.431Z,4.20
2023-04-19T05:06:40.938Z,3.90
2023-04-19T05:09:09.171Z,4.47
2023-04-19T05:11:37.282Z,4.03
2023-04-19T05:14:05.659Z,4.20
2023-04-19T05:16:34.479Z,4.53
2023-04-19T05:19:02.468Z,3.83
2023-04-19T05:21:30.899Z,4.10
2023-04-19T05:24:00.371Z,3.97
2023-04-19T05:26:28.486Z,3.50
2023-04-19T05:28:56.858Z,3.83
2023-04-19T05:31:25.153Z,3.60
2023-04-19T05:33:53.230Z,3.70
2023-04-19T05:36:21.500Z,3.87
2023-04-19T05:38:49.663Z,3.67
2023-04-19T05:41:18.998Z,3.70
2023-04-19T05:43:46.971Z,3.67
2023-04-19T05:46:15.111Z,3.80
2023-04-19T05:48:43.136Z,3.57
2023-04-19T05:51:11.349Z,3.97
2023-04-19T05:53:39.367Z,4.17
2023-04-19T05:56:08.045Z,4.00
2023-04-19T05:58:37.689Z,3.63
2023-04-19T06:01:06.163Z,4.07
2023-04-19T06:03:34.591Z,3.57
2023-04-19T06:06:02.975Z,4.07
2023-04-19T06:08:31.847Z,3.87
2023-04-19T06:11:05.196Z,4.10
2023-04-19T06:13:45.117Z,3.63
2023-04-19T06:16:13.380Z,3.93
2023-04-19T06:18:43.293Z,3.60
2023-04-19T06:21:11.439Z,3.90
2023-04-19T06:23:39.517Z,4.20
2023-04-19T06:26:07.495Z,3.77
2023-04-19T06:28:35.460Z,4.07
2023-04-19T06:31:06.581Z,3.87
2023-04-19T06:33:34.563Z,3.77
2023-04-19T06:36:02.539Z,3.77
2023-04-19T06:38:31.234Z,4.40
2023-04-19T06:40:59.217Z,3.77
2023-04-19T06:43:27.234Z,3.97
2023-04-19T06:45:59.684Z,3.80
2023-04-19T06:48:29.265Z,3.87
2023-04-19T06:50:57.535Z,4.63
2023-04-19T06:53:26.805Z,3.73
2023-04-19T06:56:01.043Z,4.63
2023-04-19T06:58:29.447Z,4.23
2023-04-19T07:00:57.516Z,4.30
2023-04-19T07:03:25.998Z,4.20
2023-04-19T07:05:56.565Z,4.10
2023-04-19T07:08:27.868Z,3.97
2023-04-19T07:11:00.325Z,4.30
2023-04-19T07:13:28.360Z,3.93
2023-04-19T07:15:56.555Z,3.93
2023-04-19T07:18:24.708Z,4.67
2023-04-19T07:20:55.018Z,4.60
2023-04-19T07:23:22.985Z,3.87
2023-04-19T07:25:50.937Z,4.47
2023-04-19T07:28:18.979Z,4.30
2023-04-19T07:30:46.929Z,4.83
2023-04-19T07:33:14.966Z,4.80
2023-04-19T07:35:42.982Z,4.80
2023-04-19T07:38:12.641Z,4.87
2023-04-19T07:40:40.718Z,5.30
2023-04-19T07:43:08.746Z,5.07
2023-04-19T07:45:36.900Z,5.80
2023-04-19T07:48:05.207Z,6.17
2023-04-19T07:50:33.261Z,8.30
2023-04-19T07:53:01.270Z,9.83
2023-04-19T07:55:30.861Z,7.87
2023-04-19T07:57:58.869Z,6.70
2023-04-19T08:00:26.987Z,7.30
2023-04-19T08:02:55.395Z,7.73
2023-04-19T08:05:24.092Z,10.57
2023-04-19T08:07:53.479Z,6.27
2023-04-19T08:10:22.499Z,5.90
2023-04-19T08:13:05.014Z,5.30
2023-04-19T08:18:05.981Z,4.77
2023-04-19T08:20:34.164Z,5.77
2023-04-19T08:23:07.585Z,5.70
2023-04-19T08:25:42.637Z,5.70
2023-04-19T08:28:12.585Z,6.07
2023-04-19T08:30:41.608Z,5.13
2023-04-19T08:33:09.656Z,6.33
2023-04-19T08:35:40.994Z,7.03
2023-04-19T08:38:09.040Z,6.80
2023-04-19T08:40:39.276Z,6.40
2023-04-19T08:43:07.942Z,6.57
2023-04-19T08:45:38.275Z,6.40
2023-04-19T08:48:07.060Z,7.53
2023-04-19T08:50:45.631Z,8.53
2023-04-19T08:53:25.351Z,8.43
2023-04-19T08:56:12.962Z,7.97
2023-04-19T09:03:59.485Z,6.57
2023-04-19T09:06:37.481Z,5.53
2023-04-19T09:11:53.385Z,5.83
2023-04-19T09:14:23.091Z,5.80
2023-04-19T09:16:53.096Z,5.43
2023-04-19T09:19:25.166Z,5.97
2023-04-19T09:21:54.901Z,5.70
2023-04-19T09:25:14.561Z,8.60
2023-04-19T09:27:29.019Z,8.20
2023-04-19T09:29:57.705Z,6.97
2023-04-19T09:32:27.667Z,7.33
2023-04-19T09:34:57.216Z,6.27
2023-04-19T09:37:39.129Z,6.20
2023-04-19T09:40:28.111Z,6.63
2023-04-19T09:45:30.589Z,5.97
2023-04-19T09:48:04.881Z,5.93
2023-04-19T09:50:34.051Z,4.90
2023-04-19T09:53:12.000Z,4.57
2023-04-19T09:55:52.556Z,4.70
2023-04-19T09:58:34.462Z,4.83
2023-04-19T10:01:15.132Z,4.77
2023-04-19T10:03:48.080Z,4.83
2023-04-19T10:06:37.326Z,4.33
2023-04-19T10:09:06.776Z,4.90
2023-04-19T10:11:40.103Z,5.00
2023-04-19T10:14:19.475Z,4.53
2023-04-19T10:16:48.013Z,4.97
2023-04-19T10:19:20.101Z,4.60
2023-04-19T10:21:49.648Z,4.60
2023-04-19T10:24:18.516Z,4.70
2023-04-19T10:27:12.386Z,4.73
2023-04-19T10:29:56.976Z,5.50
2023-04-19T10:32:26.276Z,4.97
2023-04-19T10:34:55.764Z,5.10
2023-04-19T10:37:26.201Z,5.00
2023-04-19T10:39:54.268Z,4.87
2023-04-19T10:42:22.405Z,4.20
2023-04-19T10:45:27.346Z,4.77
2023-04-19T10:47:55.466Z,5.00
2023-04-19T10:50:25.238Z,4.60
2023-04-19T10:52:53.236Z,4.83
2023-04-19T10:55:21.438Z,4.53
2023-04-19T10:58:06.682Z,5.47
2023-04-19T11:00:36.235Z,4.20
2023-04-19T11:03:50.283Z,4.43
2023-04-19T11:06:23.005Z,4.60
2023-04-19T11:08:51.057Z,4.90
2023-04-19T11:11:19.554Z,4.43
2023-04-19T11:13:49.187Z,4.50
2023-04-19T11:16:19.415Z,4.27
2023-04-19T11:18:47.752Z,4.70
2023-04-19T11:21:16.396Z,4.40
2023-04-19T11:23:47.875Z,5.20
2023-04-19T11:26:15.968Z,4.40
2023-04-19T11:28:46.134Z,4.80
2023-04-19T11:31:14.335Z,4.80
2023-04-19T11:33:45.015Z,4.40
2023-04-19T11:36:14.180Z,4.17
2023-04-19T11:38:42.165Z,4.27
2023-04-19T11:41:11.686Z,4.10
2023-04-19T11:43:40.598Z,4.47
2023-04-19T11:46:11.265Z,4.83
2023-04-19T11:48:39.673Z,4.20
2023-04-19T11:51:07.933Z,4.43
2023-04-19T11:53:36.140Z,4.13
2023-04-19T11:56:07.300Z,4.50
2023-04-19T11:58:40.213Z,4.40
2023-04-19T12:01:10.750Z,4.07
2023-04-19T12:03:43.154Z,4.70
2023-04-19T12:06:16.459Z,4.33
2023-04-19T12:08:47.406Z,4.17
2023-04-19T12:11:16.558Z,4.40
2023-04-19T12:13:46.392Z,4.27
2023-04-19T12:16:14.763Z,4.50
2023-04-19T12:18:48.673Z,4.73
2023-04-19T12:21:31.717Z,4.03
2023-04-19T12:24:01.304Z,4.63
2023-04-19T12:26:31.039Z,4.23
2023-04-19T12:29:02.600Z,3.93
2023-04-19T12:31:33.839Z,4.33
2023-04-19T12:34:01.885Z,4.60
2023-04-19T12:36:30.553Z,4.53
2023-04-19T12:38:58.932Z,4.63
2023-04-19T12:41:27.036Z,5.23
2023-04-19T12:43:55.040Z,5.17
2023-04-19T12:46:24.413Z,5.23
2023-04-19T12:48:52.424Z,5.33
2023-04-19T12:51:20.462Z,5.30
2023-04-19T12:53:50.103Z,5.20
2023-04-19T12:56:18.626Z,5.67
2023-04-19T12:58:46.620Z,5.13
2023-04-19T13:01:14.857Z,6.20
2023-04-19T13:03:44.569Z,6.40
2023-04-19T13:06:14.827Z,5.73
2023-04-19T13:08:46.573Z,5.67
2023-04-19T13:11:17.662Z,6.20
2023-04-19T13:13:45.844Z,5.77
2023-04-19T13:16:13.849Z,6.17
2023-04-19T13:18:41.907Z,6.03
2023-04-19T13:21:11.580Z,6.40
2023-04-19T13:23:39.733Z,6.33
2023-04-19T13:26:08.138Z,6.57
2023-04-19T13:28:36.814Z,6.27
2023-04-19T13:31:05.859Z,6.10
2023-04-19T13:33:34.156Z,6.80
2023-04-19T13:36:02.345Z,6.80
2023-04-19T13:38:31.867Z,7.23
2023-04-19T13:41:00.777Z,6.70
2023-04-19T13:43:28.775Z,7.43
2023-04-19T13:45:56.853Z,7.13
2023-04-19T13:48:27.445Z,6.87
2023-04-19T13:50:56.045Z,7.33
2023-04-19T13:53:25.169Z,7.77
2023-04-19T13:55:56.927Z,6.73
2023-04-19T13:58:25.927Z,7.40
2023-04-19T14:00:54.778Z,7.23
2023-04-19T14:03:24.068Z,8.10
2023-04-19T14:05:52.202Z,7.27
2023-04-19T14:08:20.983Z,7.63
2023-04-19T14:10:50.049Z,7.70
2023-04-19T14:13:19.444Z,7.97
2023-04-19T14:15:47.479Z,8.03
2023-04-19T14:18:15.527Z,8.00
2023-04-19T14:20:43.589Z,8.17
2023-04-19T14:23:11.968Z,7.83
2023-04-19T14:25:40.156Z,7.90
2023-04-19T14:28:08.369Z,7.47
2023-04-19T14:30:37.822Z,8.30
2023-04-19T14:33:05.960Z,7.40
2023-04-19T14:35:33.955Z,7.33
2023-04-19T14:38:02.045Z,6.43
2023-04-19T14:40:30.036Z,7.17
2023-04-19T14:42:58.023Z,8.13
2023-04-19T14:45:26.036Z,8.03
2023-04-19T14:47:55.407Z,6.97
2023-04-19T14:50:23.443Z,7.70
2023-04-19T14:52:51.466Z,7.40
2023-04-19T14:55:19.726Z,7.67
2023-04-19T14:57:47.686Z,7.77
2023-04-19T15:00:16.625Z,7.03
2023-04-19T15:02:44.848Z,7.23
2023-04-19T15:05:14.572Z,7.13
2023-04-19T15:07:42.813Z,7.00
2023-04-19T15:10:11.512Z,6.77
2023-04-19T15:12:39.645Z,6.93
2023-04-19T15:15:08.959Z,6.20
2023-04-19T15:17:37.353Z,6.87
2023-04-19T15:20:06.091Z,6.40
2023-04-19T15:22:35.641Z,6.80
2023-04-19T15:25:03.895Z,6.37
2023-04-19T15:27:31.973Z,6.53
2023-04-19T15:30:00.385Z,6.43
2023-04-19T15:32:31.103Z,6.13
2023-04-19T15:34:59.135Z,5.93
2023-04-19T15:37:27.631Z,6.03
2023-04-19T15:39:57.052Z,6.90
2023-04-19T15:42:25.187Z,6.97
2023-04-19T15:44:53.265Z,6.27
2023-04-19T15:47:21.252Z,7.17
2023-04-19T15:49:49.543Z,6.70
2023-04-19T15:52:19.040Z,6.80
2023-04-19T15:54:47.100Z,6.83
2023-04-19T15:57:16.676Z,7.47
2023-04-19T15:59:44.845Z,7.20
2023-04-19T16:02:13.071Z,7.30
2023-04-19T16:04:41.283Z,7.03
2023-04-19T16:07:09.359Z,7.60
2023-04-19T16:09:37.329Z,8.37
2023-04-19T16:12:05.711Z,7.90
2023-04-19T16:14:35.017Z,8.20
2023-04-19T16:17:03.021Z,8.53
2023-04-19T16:19:31.056Z,7.67
2023-04-19T16:22:02.040Z,8.40
2023-04-19T16:24:29.984Z,8.03
2023-04-19T16:26:58.882Z,7.83
2023-04-19T16:29:27.000Z,7.90
2023-04-19T16:31:56.399Z,7.93
2023-04-19T16:34:25.622Z,8.00
2023-04-19T16:36:54.261Z,8.03
2023-04-19T16:39:22.236Z,8.80
2023-04-19T16:41:50.557Z,7.33
2023-04-19T16:44:18.556Z,7.40
2023-04-19T16:46:46.557Z,7.27
2023-04-19T16:49:16.389Z,8.07
2023-04-19T16:51:44.447Z,7.60
2023-04-19T16:54:12.411Z,7.97
2023-04-19T16:56:40.479Z,7.67
2023-04-19T16:59:08.479Z,8.00
2023-04-19T17:01:36.779Z,7.10
2023-04-19T17:04:04.986Z,7.73
2023-04-19T17:06:34.719Z,7.83
2023-04-19T17:09:05.108Z,7.10
2023-04-19T17:11:33.319Z,7.93
2023-04-19T17:14:01.638Z,7.93
2023-04-19T17:16:29.636Z,8.00
2023-04-19T17:18:57.959Z,7.00
2023-04-19T17:21:26.047Z,7.33
2023-04-19T17:23:55.465Z,7.87
2023-04-19T17:26:23.891Z,7.53
2023-04-19T17:28:51.904Z,8.00
2023-04-19T17:31:19.944Z,8.03
2023-04-19T17:33:48.055Z,7.73
2023-04-19T17:36:16.019Z,8.03
2023-04-19T17:38:44.237Z,8.30
2023-04-19T17:41:16.542Z,7.80
2023-04-19T17:43:44.756Z,8.50
2023-04-19T17:46:13.852Z,8.57
2023-04-19T17:48:42.195Z,7.83
2023-04-19T17:51:10.291Z,8.50
2023-04-19T17:53:38.361Z,9.03
2023-04-19T17:56:06.595Z,8.80
2023-04-19T17:58:36.510Z,9.07
2023-04-19T18:01:06.884Z,8.63
2023-04-19T18:03:35.055Z,10.00
2023-04-19T18:06:03.253Z,9.03
2023-04-19T18:08:31.277Z,8.97
2023-04-19T18:10:59.271Z,8.80
2023-04-19T18:13:27.626Z,8.90
2023-04-19T18:15:57.161Z,9.63
2023-04-19T18:18:25.237Z,9.43
2023-04-19T18:20:53.256Z,10.07
2023-04-19T18:23:21.419Z,9.63
2023-04-19T18:25:55.003Z,10.17
2023-04-19T18:28:23.284Z,10.93
2023-04-19T18:30:51.541Z,10.47
2023-04-19T18:33:21.194Z,10.90
2023-04-19T18:35:49.362Z,11.10
2023-04-19T18:38:17.378Z,11.70
2023-04-19T18:40:45.371Z,12.20
2023-04-19T18:43:13.454Z,12.43
2023-04-19T18:45:41.564Z,12.15
2023-04-19T18:48:09.853Z,11.77
2023-04-19T18:50:39.623Z,11.97
2023-04-19T18:53:07.577Z,12.13
2023-04-19T18:55:35.776Z,12.13
2023-04-19T18:58:03.991Z,11.70
2023-04-19T19:00:32.162Z,11.70
2023-04-19T19:03:01.999Z,11.93
2023-04-19T19:05:31.479Z,12.60
2023-04-19T19:08:01.419Z,12.00
2023-04-19T19:13:00.621Z,12.03
2023-04-19T19:15:29.033Z,11.97
2023-04-19T19:17:57.352Z,11.77
2023-04-19T19:20:26.252Z,11.40
2023-04-19T19:22:54.690Z,11.60
2023-04-19T19:25:24.419Z,10.63
2023-04-19T19:30:29.486Z,10.57
2023-04-19T19:32:57.799Z,11.13
2023-04-19T19:35:25.926Z,11.47
2023-04-19T19:37:54.068Z,11.30
2023-04-19T19:40:23.591Z,11.30
2023-04-19T19:42:51.583Z,11.73
2023-04-19T19:45:19.824Z,11.43
2023-04-19T19:47:49.571Z,11.87
2023-04-19T19:52:51.492Z,12.37
2023-04-19T19:55:19.491Z,11.50
2023-04-19T19:58:25.767Z,11.43
2023-04-19T20:00:46.322Z,11.90
2023-04-19T20:03:28.330Z,13.63
2023-04-19T20:06:05.490Z,12.67
2023-04-19T20:08:47.503Z,12.40
2023-04-19T20:11:15.653Z,12.83
2023-04-19T20:13:45.917Z,10.77
2023-04-19T20:16:14.734Z,11.60
2023-04-19T20:18:44.059Z,12.00
2023-04-19T20:21:12.085Z,11.80
2023-04-19T20:23:40.749Z,11.23
2023-04-19T20:26:08.915Z,11.97
2023-04-19T20:28:36.920Z,13.03
2023-04-19T20:31:06.337Z,11.87
2023-04-19T20:33:34.480Z,11.43
2023-04-19T20:36:03.738Z,11.13
2023-04-19T20:38:34.559Z,11.13
2023-04-19T20:41:03.116Z,11.03
2023-04-19T20:43:31.915Z,11.97
2023-04-19T20:45:59.991Z,12.20
2023-04-19T20:48:29.429Z,11.83
2023-04-19T20:50:57.435Z,12.03
2023-04-19T20:53:25.528Z,11.23
2023-04-19T20:55:53.633Z,11.37
2023-04-19T20:58:21.798Z,12.07
2023-04-19T21:00:50.813Z,10.50
2023-04-19T21:03:19.098Z,11.47
2023-04-19T21:05:48.539Z,11.33
2023-04-19T21:08:18.363Z,11.47
2023-04-19T21:10:46.374Z,11.50
2023-04-19T21:13:14.331Z,10.93
2023-04-19T21:15:42.559Z,11.23
2023-04-19T21:18:10.958Z,12.07
2023-04-19T21:20:39.617Z,11.20
2023-04-19T21:23:08.944Z,14.77
2023-04-19T21:25:37.198Z,16.67
2023-04-19T21:28:05.205Z,17.47
2023-04-19T21:30:33.537Z,16.23
2023-04-19T21:33:01.800Z,16.50
2023-04-19T21:35:30.293Z,15.60
2023-04-19T21:37:58.229Z,15.30
2023-04-19T21:40:27.899Z,16.80
2023-04-19T21:42:55.951Z,15.87
2023-04-19T21:45:24.163Z,13.43
2023-04-19T21:47:52.344Z,16.20
2023-04-19T21:50:20.707Z,17.20
2023-04-19T21:52:48.729Z,16.87
2023-04-19T21:55:16.844Z,18.13
2023-04-19T21:57:46.172Z,17.60
2023-04-19T22:00:16.102Z,16.33
2023-04-19T22:02:44.492Z,15.20
2023-04-19T22:05:13.632Z,16.03
2023-04-19T22:07:42.181Z,14.23
2023-04-19T22:10:11.986Z,13.67
2023-04-19T22:12:51.292Z,14.37
2023-04-19T22:15:27.963Z,14.23
2023-04-19T22:17:57.479Z,12.63
2023-04-19T22:20:26.859Z,12.33
2023-04-19T22:22:55.136Z,11.37
2023-04-19T22:25:23.256Z,12.50
2023-04-19T22:27:51.509Z,12.33
2023-04-19T22:30:19.585Z,11.93
2023-04-19T22:32:49.259Z,12.87
2023-04-19T22:35:17.529Z,12.23
2023-04-19T22:37:45.598Z,11.97
2023-04-19T22:40:14.282Z,12.23
2023-04-19T22:42:42.402Z,12.73
2023-04-19T22:45:11.360Z,11.50
2023-04-19T22:47:39.508Z,12.10
2023-04-19T22:50:10.237Z,10.93
2023-04-19T22:52:38.673Z,10.50
2023-04-19T22:55:07.476Z,11.07
2023-04-19T22:57:35.575Z,11.40
2023-04-19T23:00:05.357Z,11.40
2023-04-19T23:02:33.487Z,12.17
2023-04-19T23:05:02.252Z,11.73
2023-04-19T23:07:32.513Z,12.33
2023-04-19T23:10:01.296Z,12.67
2023-04-19T23:12:31.010Z,12.07
2023-04-19T23:14:59.459Z,11.67
2023-04-19T23:17:27.682Z,12.23
2023-04-19T23:19:55.885Z,11.30
2023-04-19T23:22:23.930Z,11.33
2023-04-19T23:24:53.297Z,11.53
2023-04-19T23:27:21.649Z,11.00
2023-04-19T23:29:49.832Z,11.23
2023-04-19T23:32:18.172Z,10.33
2023-04-19T23:34:46.243Z,11.47
2023-04-19T23:37:14.782Z,10.70
2023-04-19T23:39:42.773Z,10.80
2023-04-19T23:42:12.335Z,11.20
2023-04-19T23:44:42.202Z,10.57
2023-04-19T23:47:11.436Z,10.47
2023-04-19T23:49:39.455Z,9.97
2023-04-19T23:52:07.570Z,9.93
2023-04-19T23:54:35.737Z,10.30
2023-04-19T23:57:03.817Z,9.63
2023-04-19T23:59:33.944Z,10.47
